Salacak — 3FBM4 — position and weather

sailwx.info

Track history (hours):
 
Tides and Currents Weather Stations Pressure Air Temp Water Temp Dewpoint Dewpoint Depression Visibility Wind Speed Wind Dir Waves Ship Positions

Salacak

Last reported at 2016-Apr-23 09:28 UTC. Time now 2016-Apr-29 17:47 UTC.
Position N 36°03' W 000°12'.

Length 126 m; draft 8.4 m.

Type: Cargo ship. MMSI: 373532000.

Date/timePositionNaut miles runAvg speedWind from/ knotsBaromVisibWave heightAir tempDewpointWater temp
2016-Apr-23 09:28N 36°03' W 000°12'1 0.7
2016-Apr-23 07:28N 36°02' W 000°12'0 0.5
2016-Apr-23 06:33N 36°02' W 000°12'0 0.4
2016-Apr-23 05:33N 36°01' W 000°12'1 0.4
2016-Apr-23 02:24N 36°00' W 000°12'0 0.4
2016-Apr-23 01:32N 35°60' W 000°12'3 0.4
2016-Apr-22 19:33N 35°58' W 000°10'1 0.5
2016-Apr-22 18:33N 35°58' W 000°10'1 0.7
2016-Apr-22 17:31N 35°58' W 000°09'1 0.7
2016-Apr-22 16:32N 35°59' W 000°08'2 0.5
2016-Apr-22 11:31N 36°01' W 000°08'1 0.3
2016-Apr-22 07:17N 36°02' W 000°08'0 0.3
2016-Apr-22 05:32N 36°03' W 000°09'0 0.3
2016-Apr-22 04:33N 36°03' W 000°08'0 0.3
2016-Apr-22 03:34N 36°03' W 000°08'0 0.3
2016-Apr-22 02:23N 36°04' W 000°08'0 0.1
2016-Apr-22 01:03N 36°04' W 000°08'0 0.1
2016-Apr-22 00:33N 36°04' W 000°08'0 0.3
2016-Apr-21 23:33N 36°04' W 000°08'0 0.3
2016-Apr-21 22:03N 36°04' W 000°08'10 5.8
2016-Apr-21 20:17N 35°58' W 000°18'1 0.7
2016-Apr-21 19:32N 35°58' W 000°17'1 0.6
2016-Apr-21 18:30N 35°58' W 000°16'1 0.6
2016-Apr-21 17:33N 35°59' W 000°16'  
2016-Apr-16 18:33N 35°59' W 000°09'9 2.1
2016-Apr-16 14:04N 36°07' W 000°02'29 3.9
2016-Apr-16 06:33N 36°01' W 000°37'22212.3
2016-Apr-15 12:28N 36°02' W 005°11'1112.3
2016-Apr-15 11:33N 36°06' W 005°24'1 0.2
2016-Apr-15 06:09N 36°07' W 005°25'0 0.0
2016-Apr-15 05:27N 36°07' W 005°25'0 0.0
2016-Apr-15 04:33N 36°07' W 005°25'0 0.0
2016-Apr-15 03:33N 36°07' W 005°25'0 0.0
2016-Apr-15 01:33N 36°07' W 005°25'0 0.0
2016-Apr-15 00:33N 36°07' W 005°25'0 0.0
2016-Apr-14 23:33N 36°07' W 005°25'0 0.0
2016-Apr-14 22:33N 36°07' W 005°25'0 0.0
2016-Apr-14 21:30N 36°07' W 005°25'0 0.0
2016-Apr-14 20:30N 36°07' W 005°25'0 0.0
2016-Apr-14 19:30N 36°07' W 005°25'0 0.0
2016-Apr-14 16:21N 36°07' W 005°25'0 0.0
2016-Apr-14 15:30N 36°07' W 005°25'0 0.0
2016-Apr-14 14:33N 36°07' W 005°25'0 0.0
2016-Apr-14 11:31N 36°07' W 005°25'2 0.1
2016-Apr-13 13:24N 36°09' W 005°25'  
Track history (hours):
 
Tides and Currents Weather Stations Pressure Air Temp Water Temp Dewpoint Dewpoint Depression Visibility Wind Speed Wind Dir Waves Ship Positions

Salacak

Last reported at 2016-Apr-23 09:28 UTC. Time now 2016-Apr-29 17:47 UTC.
Position N 36°03' W 000°12'.

Length 126 m; draft 8.4 m.

Type: Cargo ship. MMSI: 373532000.

Date/timePositionNaut miles runAvg speedWind from/ knotsBaromVisibWave heightAir tempDewpointWater temp
2016-Apr-23 09:28N 36°03' W 000°12'1 0.7
2016-Apr-23 07:28N 36°02' W 000°12'0 0.5
2016-Apr-23 06:33N 36°02' W 000°12'0 0.4
2016-Apr-23 05:33N 36°01' W 000°12'1 0.4
2016-Apr-23 02:24N 36°00' W 000°12'0 0.4
2016-Apr-23 01:32N 35°60' W 000°12'3 0.4
2016-Apr-22 19:33N 35°58' W 000°10'1 0.5
2016-Apr-22 18:33N 35°58' W 000°10'1 0.7
2016-Apr-22 17:31N 35°58' W 000°09'1 0.7
2016-Apr-22 16:32N 35°59' W 000°08'2 0.5
2016-Apr-22 11:31N 36°01' W 000°08'1 0.3
2016-Apr-22 07:17N 36°02' W 000°08'0 0.3
2016-Apr-22 05:32N 36°03' W 000°09'0 0.3
2016-Apr-22 04:33N 36°03' W 000°08'0 0.3
2016-Apr-22 03:34N 36°03' W 000°08'0 0.3
2016-Apr-22 02:23N 36°04' W 000°08'0 0.1
2016-Apr-22 01:03N 36°04' W 000°08'0 0.1
2016-Apr-22 00:33N 36°04' W 000°08'0 0.3
2016-Apr-21 23:33N 36°04' W 000°08'0 0.3
2016-Apr-21 22:03N 36°04' W 000°08'10 5.8
2016-Apr-21 20:17N 35°58' W 000°18'1 0.7
2016-Apr-21 19:32N 35°58' W 000°17'1 0.6
2016-Apr-21 18:30N 35°58' W 000°16'1 0.6
2016-Apr-21 17:33N 35°59' W 000°16'  
2016-Apr-16 18:33N 35°59' W 000°09'9 2.1
2016-Apr-16 14:04N 36°07' W 000°02'29 3.9
2016-Apr-16 06:33N 36°01' W 000°37'22212.3
2016-Apr-15 12:28N 36°02' W 005°11'1112.3
2016-Apr-15 11:33N 36°06' W 005°24'1 0.2
2016-Apr-15 06:09N 36°07' W 005°25'0 0.0
2016-Apr-15 05:27N 36°07' W 005°25'0 0.0
2016-Apr-15 04:33N 36°07' W 005°25'0 0.0
2016-Apr-15 03:33N 36°07' W 005°25'0 0.0
2016-Apr-15 01:33N 36°07' W 005°25'0 0.0
2016-Apr-15 00:33N 36°07' W 005°25'0 0.0
2016-Apr-14 23:33N 36°07' W 005°25'0 0.0
2016-Apr-14 22:33N 36°07' W 005°25'0 0.0
2016-Apr-14 21:30N 36°07' W 005°25'0 0.0
2016-Apr-14 20:30N 36°07' W 005°25'0 0.0
2016-Apr-14 19:30N 36°07' W 005°25'0 0.0
2016-Apr-14 16:21N 36°07' W 005°25'0 0.0
2016-Apr-14 15:30N 36°07' W 005°25'0 0.0
2016-Apr-14 14:33N 36°07' W 005°25'0 0.0
2016-Apr-14 11:31N 36°07' W 005°25'2 0.1
2016-Apr-13 13:24N 36°09' W 005°25'  

Dump ship's entire track history